Scroll down
FLIGHT INFORMATION
Southern Air

SOO4505

At Arrival Gate

KMSP
 KORD
DATE: 2020-08-09
GATE:  -
GATE DEPARTURE: 17:14
TAKEOFF: 17:21
DATE: 2020-08-09
GATE:  -
LANDING: 18:21
GATE ARRIVAL: 18:26
FLIGHT DATA
Crew: 
Speed: 
480 kts
Altitude: 
31,011 ft
Stage Length: 
289.8 nm
Block Time: 
1.2 hrs
Flight Time: 
1 hrs
Fuel Used: 
7,249 lb
Cleared Route: KMSP FGT FOBUG DOKTR CORDY RST ZZIPR WELCM TEEOO MITEE BHAWK STNLE CUUPP CHMPN CLSBY FYTTE MOTRR COGSS MADII SOOLU JORJO MONKZ TONIE HAZIL RW28C
TRACK DATA
50,000 ft 1,000 kts
AIRCRAFT INFO AND CUMULATIVE STATS
Aircraft Type: 
B738BCF
Registration: 
SELCAL: 
MSN/LN: 
32614 / 1201
Operator: 
Total Flights: 
11
Total Block Time: 
20.6 hrs
Total Flight Time: 
18.2 hrs
Total Fuel Used: 
119,364 lb
DATALINK LOG | Newest first | Current as of: 2022-09-28 23:35:08
LABEL SEQUENCE CONTENT Dn/Up
QD275818:26 10.5▼ Dn
QC225418:21▼ Dn
465327/OV DLL /TM 1752 /FL310 /TP B738 /SK SCT /TA -33 /WV 282/35 /RM PR TEST-HELLO GFO▼ Dn
5R5125 ---- ---- -- ----▼ Dn
2U4332KORD 091651Z 20012G17KT 10SM FEW050 SCT250 31/20 A3004 RMK AO2 SLP165 T03110200▲ Up
2S4419KORD▼ Dn
QB225917:21▼ Dn
QA155217:14 17.7▼ Dn
2U0804KMSP 091653Z 19005KT 8SM FEW034 SCT075 OVC110 26/21 A2989 RMK AO2 RAB37E53 SLP118 P0001 T02560206▲ Up
2S0947KMSP▼ Dn
5U0233KORD 092054Z 19012G20KT 10SM SCT050 30/19 A3006▲ Up
2U0129KMSP 091553Z VRB05KT 10SM SCT160 OVC200 26/20 A2986 RMK AO2 LTG DSNT N PRESRR SLP106 T02560200▲ Up
5S0252KORD▼ Dn
2S0251KMSP▼ Dn
A30250CLEARED TO KORD VIA RST ZZIPR FYTTE5. SQUAWK .▲ Up
Q00140[LINK ACK]▲ Up
Q00140[LINK TEST]▼ Dn


AIRCRAFT HISTORY
FLIGHT DATE FLIGHT NO. ORIGIN DESTINATION CLEARED ROUTE BLOCK TIME FLIGHT TIME FUEL USED PILOT
2021-04-26SOO426KGTF KGEG KGTF MLP KGEG1 hrs0.8 hrs5,800 lbKevin Hall
2021-04-26SOO426KRKS KGTF KRKS OCS GTF KGTF1.1 hrs1 hrs6,292 lbKevin Hall
2021-04-26SOO426KAMA KRKS KAMA PNH KENTO TBE PUB OCS KRKS1.5 hrs1.3 hrs8,561 lbKevin Hall
2021-04-16SOO416KCRP KAMA KCRP ATHIS CARTI OTWED THX TINIE OTVIW LEMIG SAT DIESL LYMPY HUDAD CEVEX KAMA1.6 hrs1.5 hrs9,645 lbKevin Hall
2021-04-16SOO416MMMX KCRP MMMX APN MUXEP ALUNI XOSOK LOSBA TAM MAPIL DUSPI NUGUS AXIPU MAM GROSZ BRO CRP POGOE KCRP1.7 hrs1.5 hrs9,600 lbKevin Hall
2020-09-25SOO2201CYYZ MMMX CYYZ GNTRY DJB BVT SPI MEM CARIN TOZZI SUTTN ELD MIXIE LURIC ENJOY VELCO DARTR RAECN IAH PSX BRO GROSZ MAM GAGPI URVUT NADOR XOMLU TMN AVSAR MMMX4.6 hrs4.4 hrs29,767 lbRoberto Stopnicki
2020-08-29SOO2201KMEM CYYZ KMEM HUMMS PXV MAYZE QWERI CYYZ1.9 hrs1.8 hrs11,599 lbRoberto Stopnicki
2020-08-27SOO827KYIP KMEM KYIP SINKR PXV KMEM2.1 hrs1.6 hrs10,693 lbKevin Hall
2020-08-25SOO825KORD KYIP KORD MOBLE ADIME PETTE SYREN KYIP1 hrs0.6 hrs5,130 lbKevin Hall
2020-08-09SOO4505KMSP KORD KMSP FGT FOBUG DOKTR CORDY RST ZZIPR WELCM TEEOO MITEE BHAWK STNLE CUUPP CHMPN CLSBY FYTTE MOTRR COGSS MADII SOOLU JORJO MONKZ TONIE HAZIL RW28C1.2 hrs1 hrs7,249 lbGeorge
2020-08-08SOO512KBDL KMSP KBDL CTR HANAA ARNII GOATR AHPAH KELTI AGDOX NOSIK ZOHAN IDIOM SHEAY CMARO JERMN MUSCL BAYKS WOLVS LOOON WDBRY ZASKY CMMOE COZZZ HAMML RW12L2.9 hrs2.6 hrs15,029 lbDan Downs